Time;durP1;ratioP1;P1;durP2;ratioP2;P2;SDS_P1;SDS_P2;PMS_P1;PMS_P2;Temp;Humidity;BMP_temperature;BMP_pressure;BME280_temperature;BME280_humidity;BME280_pressure;Samples;Min_cycle;Max_cycle;Signal;HPM_P1;HPM_P2
2022/04/09 00:00:17;;;;;;;16.15;3.50;;;;;;;3.72;90.57;100352.88;5054887;28;20104;-65
2022/04/09 00:02:43;;;;;;;15.63;3.30;;;;;;;3.69;90.72;100357.16;5055298;28;20072;-65
2022/04/09 00:05:11;;;;;;;16.25;3.80;;;;;;;3.69;91.02;100363.19;5055074;28;20025;-67
2022/04/09 00:07:36;;;;;;;10.43;3.30;;;;;;;3.62;90.96;100358.84;5054832;28;20367;-65
2022/04/09 00:10:05;;;;;;;15.70;4.00;;;;;;;3.63;90.84;100376.13;5054966;28;20033;-65
2022/04/09 00:12:30;;;;;;;16.50;3.83;;;;;;;3.66;91.23;100376.09;5054890;28;20033;-67
2022/04/09 00:14:55;;;;;;;14.35;3.85;;;;;;;3.64;91.26;100374.34;5054618;28;20029;-67
2022/04/09 00:17:21;;;;;;;16.85;3.85;;;;;;;3.60;91.55;100378.69;5054991;28;20032;-66
2022/04/09 00:19:46;;;;;;;15.07;3.70;;;;;;;3.59;91.27;100378.66;5054774;28;20052;-65
2022/04/09 00:22:11;;;;;;;16.30;4.20;;;;;;;3.63;91.12;100395.94;5054799;28;20175;-66
2022/04/09 00:24:37;;;;;;;19.45;3.80;;;;;;;3.62;91.34;100402.84;5054789;28;20321;-66
2022/04/09 00:27:02;;;;;;;16.00;3.70;;;;;;;3.58;91.67;100403.66;5054711;28;20039;-65
2022/04/09 00:29:27;;;;;;;13.85;3.92;;;;;;;3.50;90.99;100389.78;5054466;28;20032;-64
2022/04/09 00:31:53;;;;;;;14.65;4.10;;;;;;;3.61;91.13;100408.88;5054014;28;20380;-67
2022/04/09 00:34:18;;;;;;;15.20;3.92;;;;;;;3.59;91.75;100409.72;5054456;28;20102;-66
2022/04/09 00:36:43;;;;;;;19.15;3.80;;;;;;;3.56;91.00;100414.84;5054566;28;20021;-66
2022/04/09 00:39:08;;;;;;;20.25;4.10;;;;;;;3.55;91.67;100413.13;5054454;28;20444;-66
2022/04/09 00:41:34;;;;;;;19.08;4.18;;;;;;;3.56;91.87;100426.06;5054448;28;20098;-65
2022/04/09 00:43:59;;;;;;;18.92;3.88;;;;;;;3.47;91.19;100415.63;5054762;28;20112;-66
2022/04/09 00:46:25;;;;;;;21.60;4.20;;;;;;;3.50;91.71;100428.59;5057331;28;20509;-66
2022/04/09 00:48:50;;;;;;;24.80;3.97;;;;;;;3.48;91.58;100430.28;5058796;28;20044;-65
2022/04/09 00:51:15;;;;;;;18.48;4.22;;;;;;;3.47;92.46;100436.31;5058625;28;20128;-65
2022/04/09 00:53:44;;;;;;;19.70;4.30;;;;;;;3.48;92.32;100443.22;5058321;28;20036;-65
2022/04/09 00:56:15;;;;;;;18.23;4.70;;;;;;;3.47;92.02;100446.66;5058366;28;20024;-67
2022/04/09 00:58:46;;;;;;;18.05;4.75;;;;;;;3.39;91.80;100443.16;5058315;28;20021;-65
2022/04/09 01:01:11;;;;;;;21.50;4.43;;;;;;;3.42;91.83;100451.81;5058165;28;20033;-65
2022/04/09 01:03:37;;;;;;;17.42;3.53;;;;;;;3.36;92.06;100451.75;5058235;28;20036;-67
2022/04/09 01:06:05;;;;;;;21.13;3.95;;;;;;;3.36;91.97;100461.22;5058145;28;20044;-67
2022/04/09 01:08:31;;;;;;;16.38;3.42;;;;;;;3.34;92.11;100468.97;5057990;28;20037;-65
2022/04/09 01:10:56;;;;;;;18.92;3.83;;;;;;;3.31;92.19;100471.50;5058384;28;20562;-64
2022/04/09 01:13:22;;;;;;;16.25;3.60;;;;;;;3.29;92.05;100472.38;5057859;28;20025;-65
2022/04/09 01:15:47;;;;;;;14.10;3.40;;;;;;;3.26;92.67;100483.56;5058311;28;20037;-66
2022/04/09 01:18:15;;;;;;;19.73;3.88;;;;;;;3.22;93.02;100483.50;5058044;28;20037;-67
2022/04/09 01:20:40;;;;;;;14.85;3.13;;;;;;;3.20;92.88;100490.38;5058234;28;20041;-65
2022/04/09 01:23:05;;;;;;;15.95;3.50;;;;;;;3.02;92.82;100468.63;5057928;28;20052;-66
2022/04/09 01:25:31;;;;;;;17.23;3.78;;;;;;;3.15;93.04;100496.34;5057838;28;20340;-66
2022/04/09 01:27:56;;;;;;;17.05;3.88;;;;;;;3.07;92.33;100499.72;5057901;28;20428;-65
2022/04/09 01:30:21;;;;;;;19.85;3.55;;;;;;;3.06;92.96;100504.03;5057639;28;20049;-65
2022/04/09 01:32:47;;;;;;;18.77;3.38;;;;;;;3.01;92.65;100499.63;5057671;28;20036;-65
2022/04/09 01:35:13;;;;;;;16.98;3.63;;;;;;;3.02;93.21;100507.41;5057641;28;20431;-66
2022/04/09 01:37:38;;;;;;;15.27;3.35;;;;;;;3.00;92.93;100516.00;5057409;28;20044;-66
2022/04/09 01:40:04;;;;;;;22.92;3.85;;;;;;;3.02;93.53;100519.47;5057588;28;20517;-64
2022/04/09 01:42:29;;;;;;;15.82;3.72;;;;;;;2.94;93.27;100515.94;5057679;28;20059;-66
2022/04/09 01:44:55;;;;;;;17.38;3.75;;;;;;;2.95;93.67;100523.69;5057345;28;20478;-66
2022/04/09 01:47:21;;;;;;;14.57;3.05;;;;;;;2.95;93.78;100535.72;5057441;28;20058;-66
2022/04/09 01:49:46;;;;;;;17.52;3.38;;;;;;;2.94;93.96;100531.44;5057271;28;20028;-64
2022/04/09 01:52:12;;;;;;;16.33;3.30;;;;;;;2.99;93.92;100535.81;5057355;28;20033;-65
2022/04/09 01:54:37;;;;;;;16.52;3.30;;;;;;;2.92;93.56;100539.19;5056654;28;20106;-65
2022/04/09 01:57:03;;;;;;;15.23;2.90;;;;;;;2.95;94.11;100549.53;5057103;28;20112;-67
2022/04/09 01:59:28;;;;;;;17.60;3.50;;;;;;;2.90;94.04;100556.38;5057417;28;20337;-66
2022/04/09 02:01:53;;;;;;;17.00;3.20;;;;;;;2.88;94.11;100552.91;5057315;28;20029;-65
2022/04/09 02:04:18;;;;;;;19.02;3.58;;;;;;;2.92;94.39;100556.41;5057152;28;20059;-65
2022/04/09 02:06:44;;;;;;;16.67;3.30;;;;;;;2.91;93.93;100558.09;5057355;28;20041;-66
2022/04/09 02:09:13;;;;;;;16.60;2.92;;;;;;;3.00;94.04;100570.25;5056652;28;20036;-65
2022/04/09 02:11:42;;;;;;;11.20;3.22;;;;;;;2.97;93.94;100570.22;5056873;28;20446;-67
2022/04/09 02:14:09;;;;;;;17.70;2.97;;;;;;;2.88;94.24;100567.53;5056561;28;20433;-66
2022/04/09 02:16:35;;;;;;;20.42;3.20;;;;;;;3.00;94.15;100584.06;5056691;28;20432;-65
2022/04/09 02:19:00;;;;;;;13.18;2.58;;;;;;;2.99;94.34;100579.72;5056869;28;20170;-67
2022/04/09 02:21:25;;;;;;;17.77;3.08;;;;;;;3.01;94.15;100598.72;5056768;28;20364;-66
2022/04/09 02:23:50;;;;;;;17.52;3.13;;;;;;;3.03;93.97;100594.44;5056776;28;20029;-64
2022/04/09 02:26:16;;;;;;;17.15;3.47;;;;;;;2.93;93.73;100597.78;5056759;28;20029;-66
2022/04/09 02:28:41;;;;;;;20.48;3.30;;;;;;;2.92;94.08;100601.19;5056551;28;20033;-66
2022/04/09 02:31:07;;;;;;;16.00;2.90;;;;;;;2.95;94.27;100600.34;5056803;28;20056;-65
2022/04/09 02:33:32;;;;;;;15.98;3.22;;;;;;;3.01;94.04;100608.19;5056579;28;20025;-65
2022/04/09 02:35:57;;;;;;;16.73;3.05;;;;;;;2.95;93.94;100601.22;5056411;28;20043;-64
2022/04/09 02:38:24;;;;;;;16.27;3.13;;;;;;;2.95;94.24;100597.75;5056150;28;20041;-66
2022/04/09 02:40:49;;;;;;;17.13;3.53;;;;;;;2.97;93.85;100615.03;5056433;28;20112;-66
2022/04/09 02:43:14;;;;;;;12.20;2.70;;;;;;;2.94;93.61;100620.19;5056185;28;20061;-65
2022/04/09 02:45:40;;;;;;;17.08;2.83;;;;;;;2.77;93.59;100609.56;5055144;28;20037;-65
2022/04/09 02:48:05;;;;;;;17.10;2.67;;;;;;;2.72;94.24;100602.63;5056238;28;20128;-66
2022/04/09 02:50:30;;;;;;;18.02;3.30;;;;;;;2.91;94.17;100634.78;5055762;28;20118;-66
2022/04/09 02:52:56;;;;;;;12.27;3.00;;;;;;;2.95;93.71;100627.06;5056339;28;20035;-64
2022/04/09 02:55:21;;;;;;;16.73;3.40;;;;;;;2.98;93.52;100634.84;5056233;28;20025;-66
2022/04/09 02:57:46;;;;;;;11.65;2.92;;;;;;;2.97;92.90;100640.00;5056385;28;20044;-65
2022/04/09 03:00:12;;;;;;;12.95;2.80;;;;;;;2.95;93.59;100639.13;5056171;28;20147;-67
2022/04/09 03:02:39;;;;;;;16.40;2.90;;;;;;;3.03;93.82;100653.03;5056064;28;20352;-67
2022/04/09 03:05:05;;;;;;;22.27;2.97;;;;;;;3.02;93.52;100654.75;5056045;28;20041;-65
2022/04/09 03:07:31;;;;;;;18.80;3.20;;;;;;;3.02;93.36;100659.03;5056083;28;20105;-67
2022/04/09 03:09:56;;;;;;;11.52;2.47;;;;;;;2.97;93.41;100658.09;5055266;28;20094;-65
2022/04/09 03:12:21;;;;;;;16.10;2.60;;;;;;;2.98;93.68;100663.28;5056114;28;20362;-64
2022/04/09 03:14:46;;;;;;;10.82;2.80;;;;;;;2.93;93.49;100657.22;5055527;28;20036;-65
2022/04/09 03:17:12;;;;;;;12.55;2.90;;;;;;;2.93;93.64;100664.09;5055697;28;20033;-64
2022/04/09 03:19:38;;;;;;;14.38;2.55;;;;;;;2.91;94.12;100665.78;5055614;28;20033;-65
2022/04/09 03:22:03;;;;;;;15.10;3.20;;;;;;;2.82;93.53;100666.50;5055470;28;20029;-65
2022/04/09 03:24:29;;;;;;;12.50;2.60;;;;;;;2.79;93.75;100667.31;5055860;28;20443;-63
2022/04/09 03:26:55;;;;;;;10.90;2.72;;;;;;;2.80;93.88;100683.69;5055424;28;20343;-66
2022/04/09 03:29:20;;;;;;;16.35;2.85;;;;;;;2.80;93.36;100686.28;5055767;28;20037;-65
2022/04/09 03:31:45;;;;;;;14.25;3.00;;;;;;;2.73;94.01;100676.72;5055185;28;20060;-66
2022/04/09 03:34:11;;;;;;;12.18;3.03;;;;;;;2.74;93.75;100693.94;5055409;28;20123;-65
2022/04/09 03:36:38;;;;;;;17.25;2.80;;;;;;;2.66;93.98;100686.06;5055540;28;20112;-65
2022/04/09 03:39:04;;;;;;;12.65;2.80;;;;;;;2.66;93.56;100703.28;5055548;28;20425;-66
2022/04/09 03:41:29;;;;;;;14.68;2.92;;;;;;;2.64;93.79;100697.22;5055178;28;20112;-65
2022/04/09 03:43:54;;;;;;;15.18;2.78;;;;;;;2.60;92.98;100696.28;5055036;28;20024;-68
2022/04/09 03:46:19;;;;;;;18.50;3.47;;;;;;;2.59;93.46;100704.03;5055138;28;20029;-68
2022/04/09 03:48:45;;;;;;;15.80;3.15;;;;;;;2.56;93.70;100701.41;5055424;28;20478;-65
2022/04/09 03:51:11;;;;;;;13.18;3.22;;;;;;;2.55;93.91;100707.41;5055065;28;20025;-66
2022/04/09 03:53:36;;;;;;;18.45;3.63;;;;;;;2.48;94.09;100703.84;5055057;28;20029;-65
2022/04/09 03:56:02;;;;;;;17.13;3.08;;;;;;;2.47;93.95;100708.97;5055221;28;20033;-65
2022/04/09 03:58:28;;;;;;;21.50;3.45;;;;;;;2.48;93.78;100711.59;5054644;28;20036;-68
2022/04/09 04:00:53;;;;;;;19.08;3.35;;;;;;;2.45;93.87;100714.97;5054734;28;20032;-66
2022/04/09 04:03:19;;;;;;;13.77;3.10;;;;;;;2.45;93.99;100724.44;5054920;28;20036;-66
2022/04/09 04:05:48;;;;;;;13.75;2.80;;;;;;;2.43;94.77;100734.75;5055004;28;20538;-66
2022/04/09 04:08:14;;;;;;;15.88;3.08;;;;;;;2.43;94.61;100744.19;5055040;28;20036;-67
2022/04/09 04:10:40;;;;;;;17.50;3.67;;;;;;;2.40;94.89;100739.88;5054749;28;20060;-64
2022/04/09 04:13:06;;;;;;;15.48;3.33;;;;;;;2.34;94.74;100744.94;5054676;28;20360;-66
2022/04/09 04:15:33;;;;;;;18.10;3.10;;;;;;;2.34;94.39;100742.34;5054754;28;20324;-67
2022/04/09 04:17:58;;;;;;;17.83;3.58;;;;;;;2.29;94.89;100746.53;5054700;28;20029;-64
2022/04/09 04:20:24;;;;;;;13.15;3.25;;;;;;;2.35;94.83;100757.00;5054878;28;20344;-66
2022/04/09 04:22:51;;;;;;;15.00;3.10;;;;;;;2.32;94.62;100756.94;5054809;28;20029;-66
2022/04/09 04:25:17;;;;;;;14.75;3.35;;;;;;;2.28;94.58;100772.31;5054792;28;20475;-65
2022/04/09 04:27:45;;;;;;;13.18;2.95;;;;;;;2.35;94.82;100771.63;5054362;28;20060;-66
2022/04/09 04:30:10;;;;;;;16.75;3.20;;;;;;;2.35;94.84;100769.91;5054770;28;20056;-67
2022/04/09 04:32:36;;;;;;;12.20;2.67;;;;;;;2.21;94.31;100748.13;5054890;28;20033;-66
2022/04/09 04:35:02;;;;;;;11.75;3.08;;;;;;;2.30;94.83;100775.81;5054669;28;20060;-67
2022/04/09 04:37:38;;;;;;;13.23;2.63;;;;;;;2.29;94.62;100777.53;5073224;28;20068;-65
2022/04/09 04:40:05;;;;;;;16.23;2.83;;;;;;;2.29;94.87;100779.22;5074635;28;20028;-67
2022/04/09 04:42:30;;;;;;;11.15;2.75;;;;;;;2.34;95.35;100786.25;5074545;28;20028;-66
2022/04/09 04:44:55;;;;;;;13.65;2.70;;;;;;;2.31;95.46;100777.56;5074711;28;20033;-66
2022/04/09 04:47:21;;;;;;;13.38;3.63;;;;;;;2.32;95.15;100787.91;5074887;28;20029;-64
2022/04/09 04:49:46;;;;;;;19.33;3.20;;;;;;;2.36;95.62;100797.47;5073569;28;20085;-65
2022/04/09 04:52:11;;;;;;;13.00;3.15;;;;;;;2.34;95.30;100795.69;5074517;28;20033;-66
2022/04/09 04:54:36;;;;;;;16.90;3.10;;;;;;;2.34;95.59;100799.16;5074391;28;20419;-65
2022/04/09 04:57:02;;;;;;;15.55;2.90;;;;;;;2.37;95.23;100804.38;5074475;28;20068;-68
2022/04/09 04:59:27;;;;;;;16.92;3.50;;;;;;;2.20;95.40;100777.38;5074524;28;20343;-65
2022/04/09 05:01:53;;;;;;;13.25;3.38;;;;;;;2.39;95.50;100807.88;5074624;28;20032;-65
2022/04/09 05:04:18;;;;;;;12.50;2.72;;;;;;;2.37;95.10;100812.13;5074662;28;20098;-66
2022/04/09 05:06:45;;;;;;;16.58;3.30;;;;;;;2.39;94.83;100812.16;5074486;28;20510;-65
2022/04/09 05:09:10;;;;;;;15.38;3.38;;;;;;;2.45;95.21;100822.56;5074281;28;20335;-66
2022/04/09 05:11:36;;;;;;;18.30;3.25;;;;;;;2.43;95.22;100825.13;5074223;28;20037;-65
2022/04/09 05:14:03;;;;;;;19.00;3.85;;;;;;;2.44;95.05;100841.50;5074560;28;20028;-65
2022/04/09 05:16:28;;;;;;;11.18;3.10;;;;;;;2.48;94.64;100830.38;5074349;28;20036;-67
2022/04/09 05:18:54;;;;;;;11.02;2.97;;;;;;;2.52;94.50;100844.25;5074483;28;20448;-67
2022/04/09 05:21:19;;;;;;;17.60;3.00;;;;;;;2.56;94.53;100849.50;5074317;28;20048;-64
2022/04/09 05:23:44;;;;;;;14.63;3.30;;;;;;;2.53;94.15;100841.69;5074160;28;20436;-66
2022/04/09 05:26:10;;;;;;;14.35;3.10;;;;;;;2.61;93.88;100849.56;5074243;28;20033;-68
2022/04/09 05:28:35;;;;;;;16.02;3.13;;;;;;;2.63;93.89;100846.16;5074233;28;20086;-66
2022/04/09 05:31:02;;;;;;;13.85;2.95;;;;;;;2.65;94.01;100859.13;5074406;28;20135;-65
2022/04/09 05:33:28;;;;;;;16.40;2.97;;;;;;;2.72;93.92;100863.56;5077754;28;20060;-64
2022/04/09 05:35:54;;;;;;;15.70;3.50;;;;;;;2.72;94.48;100861.88;5078087;28;20091;-65
2022/04/09 05:38:19;;;;;;;15.80;2.97;;;;;;;2.79;94.24;100875.75;5077533;28;20040;-69
2022/04/09 05:40:44;;;;;;;15.70;3.40;;;;;;;2.85;93.70;100875.00;5077179;28;20024;-66
2022/04/09 05:43:10;;;;;;;13.45;3.00;;;;;;;2.89;93.48;100880.25;5077372;28;20028;-66
2022/04/09 05:45:36;;;;;;;15.23;3.50;;;;;;;2.96;93.56;100882.09;5077395;28;20470;-65
2022/04/09 05:48:02;;;;;;;19.67;3.60;;;;;;;3.01;93.33;100885.63;5077532;28;20024;-65
2022/04/09 05:50:27;;;;;;;19.02;3.85;;;;;;;3.25;93.25;100889.50;5077759;28;20029;-64
2022/04/09 05:52:54;;;;;;;16.13;3.13;;;;;;;3.83;91.01;100878.31;5077270;28;20109;-68
2022/04/09 05:55:19;;;;;;;15.85;3.28;;;;;;;4.38;88.80;100892.03;5076736;28;20440;-70
2022/04/09 05:57:44;;;;;;;18.80;3.15;;;;;;;5.17;86.40;100888.59;5077346;28;20039;-68
2022/04/09 06:00:11;;;;;;;14.68;3.08;;;;;;;6.06;82.46;100900.50;5077358;28;20119;-65
2022/04/09 06:02:39;;;;;;;15.63;3.10;;;;;;;6.44;78.96;100895.50;5077258;28;20021;-58
2022/04/09 06:05:08;;;;;;;17.52;2.90;;;;;;;6.83;77.49;100910.38;5074960;28;20061;-66
2022/04/09 06:07:34;;;;;;;14.55;2.90;;;;;;;7.09;76.11;100914.78;5075328;28;20029;-64
2022/04/09 06:09:59;;;;;;;18.15;2.90;;;;;;;7.28;75.91;100912.19;5076774;28;20028;-65
2022/04/09 06:12:25;;;;;;;15.13;3.00;;;;;;;7.66;73.84;100908.75;5076797;28;20032;-66
2022/04/09 06:14:50;;;;;;;11.38;3.00;;;;;;;8.29;71.79;100912.13;5076768;28;20033;-65
2022/04/09 06:17:15;;;;;;;12.77;3.00;;;;;;;8.65;69.23;100914.63;5076827;28;20334;-65
2022/04/09 06:19:41;;;;;;;11.85;2.80;;;;;;;8.48;68.77;100924.25;5076675;28;20141;-65
2022/04/09 06:22:06;;;;;;;13.90;2.63;;;;;;;8.19;70.00;100918.22;5076443;28;20079;-66
2022/04/09 06:24:31;;;;;;;13.07;2.85;;;;;;;7.88;70.31;100925.22;5077189;28;20040;-64
2022/04/09 06:26:57;;;;;;;11.93;2.75;;;;;;;7.50;71.92;100943.47;5076656;28;20459;-65
2022/04/09 06:29:22;;;;;;;13.63;2.95;;;;;;;7.08;74.36;100945.16;5076397;28;20032;-65
2022/04/09 06:31:47;;;;;;;13.88;2.90;;;;;;;6.83;74.85;100938.13;5075790;28;20052;-64
2022/04/09 06:34:17;;;;;;;16.33;3.00;;;;;;;6.78;76.25;100953.69;5075751;28;20020;-64
2022/04/09 06:36:42;;;;;;;11.18;2.83;;;;;;;7.19;75.10;100958.16;5076916;28;20044;-58
2022/04/09 06:39:08;;;;;;;11.48;2.78;;;;;;;7.36;73.52;100953.00;5076386;28;20044;-59
2022/04/09 06:41:33;;;;;;;13.70;3.17;;;;;;;6.96;75.12;100958.97;5076129;28;20381;-67
2022/04/09 06:43:59;;;;;;;14.55;2.97;;;;;;;6.83;76.48;100954.59;5075423;28;20028;-65
2022/04/09 06:46:25;;;;;;;15.32;2.92;;;;;;;6.83;76.99;100964.13;5075975;28;20123;-67
2022/04/09 06:48:51;;;;;;;14.60;3.28;;;;;;;6.86;77.05;100959.81;5076273;28;20455;-69
2022/04/09 06:51:16;;;;;;;15.18;2.85;;;;;;;7.15;77.82;100972.91;5076112;28;20036;-66
2022/04/09 06:53:41;;;;;;;13.07;2.95;;;;;;;7.23;75.66;100968.59;5075875;28;20115;-67
2022/04/09 06:56:07;;;;;;;17.17;3.00;;;;;;;7.41;76.44;100964.28;5075923;28;20035;-67
2022/04/09 06:58:33;;;;;;;15.05;2.72;;;;;;;7.58;75.30;100962.56;5069818;28;20020;-66
2022/04/09 07:00:59;;;;;;;13.32;2.95;;;;;;;7.40;75.14;100972.97;5070172;28;20505;-66
2022/04/09 07:03:24;;;;;;;11.48;2.53;;;;;;;7.23;76.03;100978.16;5076054;28;20050;-66
2022/04/09 07:05:49;;;;;;;18.08;2.97;;;;;;;7.08;76.04;100984.19;5074488;28;20336;-65
2022/04/09 07:08:15;;;;;;;14.40;2.92;;;;;;;6.95;76.49;100990.19;5075812;28;20413;-64
2022/04/09 07:10:40;;;;;;;13.75;2.60;;;;;;;6.72;77.59;100979.72;5075473;28;20021;-65
2022/04/09 07:13:06;;;;;;;16.88;3.15;;;;;;;6.66;77.63;100997.00;5075933;28;20455;-64
2022/04/09 07:15:32;;;;;;;11.20;2.90;;;;;;;6.61;77.95;100992.63;5075746;28;20105;-66
2022/04/09 07:17:58;;;;;;;12.93;3.35;;;;;;;6.61;77.53;101005.63;5075660;28;20416;-64
2022/04/09 07:20:23;;;;;;;13.65;2.47;;;;;;;6.51;77.79;101009.06;5075407;28;20082;-66
2022/04/09 07:22:48;;;;;;;10.68;3.00;;;;;;;6.51;76.53;101008.19;5075167;28;20088;-64
2022/04/09 07:25:16;;;;;;;8.48;2.90;;;;;;;6.27;78.04;101004.56;5075650;28;20080;-66
2022/04/09 07:27:43;;;;;;;11.77;2.90;;;;;;;6.29;78.68;101022.78;5069444;28;20036;-65
2022/04/09 07:30:12;;;;;;;14.75;3.00;;;;;;;6.36;80.05;101024.56;5060520;28;20056;-65
2022/04/09 07:32:37;;;;;;;14.10;2.83;;;;;;;6.41;79.03;101022.84;5075642;28;20040;-66
2022/04/09 07:35:03;;;;;;;13.82;2.78;;;;;;;6.49;78.90;101018.56;5075304;28;20435;-64
2022/04/09 07:37:29;;;;;;;16.08;3.50;;;;;;;6.70;78.86;101024.75;5075325;28;20036;-66
2022/04/09 07:39:54;;;;;;;13.40;2.83;;;;;;;6.87;77.71;101028.31;5075409;28;20033;-67
2022/04/09 07:42:21;;;;;;;14.68;3.22;;;;;;;7.05;78.21;101031.00;5074878;28;20400;-65
2022/04/09 07:44:46;;;;;;;12.70;3.25;;;;;;;7.19;78.17;101026.72;5075249;28;20039;-66
2022/04/09 07:47:11;;;;;;;20.30;3.35;;;;;;;7.37;77.06;101033.69;5075287;28;20032;-65
2022/04/09 07:49:37;;;;;;;15.63;3.05;;;;;;;7.50;76.24;101029.38;5075217;28;20367;-64
2022/04/09 07:52:02;;;;;;;11.32;3.38;;;;;;;7.67;76.03;101020.72;5075173;28;20035;-64
2022/04/09 07:54:29;;;;;;;18.83;3.13;;;;;;;7.76;75.55;101027.72;5074374;28;20044;-65
2022/04/09 07:56:55;;;;;;;13.57;3.20;;;;;;;7.93;75.83;101033.78;5075146;28;20041;-66
2022/04/09 07:59:20;;;;;;;18.83;3.58;;;;;;;8.06;75.31;101031.19;5071883;28;20028;-64
2022/04/09 08:01:46;;;;;;;16.55;3.90;;;;;;;8.20;74.37;101038.13;5074211;28;20355;-64
2022/04/09 08:04:11;;;;;;;18.38;3.30;;;;;;;8.29;73.14;101029.44;5074246;28;20040;-65
2022/04/09 08:06:36;;;;;;;16.20;3.30;;;;;;;8.41;73.80;101031.19;5074319;28;20331;-65
2022/04/09 08:09:02;;;;;;;12.02;3.22;;;;;;;8.48;71.70;101027.72;5074660;28;20020;-66
2022/04/09 08:11:28;;;;;;;11.68;2.90;;;;;;;8.61;71.60;101032.88;5074007;28;20029;-67
2022/04/09 08:13:53;;;;;;;11.32;2.88;;;;;;;8.66;71.29;101028.50;5074706;28;20067;-65
2022/04/09 08:16:18;;;;;;;12.90;2.70;;;;;;;8.97;68.93;101042.34;5074595;28;20128;-65
2022/04/09 08:18:44;;;;;;;12.43;2.95;;;;;;;9.37;69.12;101035.19;5074838;28;20044;-66
2022/04/09 08:21:09;;;;;;;14.60;2.95;;;;;;;9.68;64.78;101029.78;5074313;28;20366;-64
2022/04/09 08:23:34;;;;;;;12.32;2.97;;;;;;;10.06;64.61;101039.94;5074595;28;20028;-66
2022/04/09 08:26:01;;;;;;;12.05;2.97;;;;;;;10.17;62.54;101045.09;5074915;28;20455;-65
2022/04/09 08:28:30;;;;;;;8.73;2.13;;;;;;;10.51;62.41;101038.69;5073789;28;20080;-64
2022/04/09 08:30:55;;;;;;;13.70;3.00;;;;;;;10.72;62.19;101037.63;5074659;28;20135;-65
2022/04/09 08:33:21;;;;;;;11.27;2.70;;;;;;;10.66;62.00;101040.28;5074541;28;20064;-66
2022/04/09 08:35:47;;;;;;;8.23;2.38;;;;;;;10.76;59.89;101048.00;5074493;28;20029;-64
2022/04/09 08:38:12;;;;;;;9.77;2.22;;;;;;;10.86;57.55;101054.03;5074758;28;20040;-64
2022/04/09 08:40:38;;;;;;;10.68;2.83;;;;;;;10.97;56.65;101053.91;5074613;28;20044;-65
2022/04/09 08:43:04;;;;;;;10.68;2.25;;;;;;;10.98;54.36;101046.03;5074708;28;20039;-66
2022/04/09 08:45:35;;;;;;;7.95;2.28;;;;;;;10.89;54.98;101063.59;5074696;28;20086;-65
2022/04/09 08:48:02;;;;;;;9.02;2.05;;;;;;;11.41;53.85;101067.31;5074640;28;20051;-67
2022/04/09 08:50:28;;;;;;;9.55;2.30;;;;;;;11.50;55.04;101064.56;5074352;28;20063;-64
2022/04/09 08:52:53;;;;;;;10.73;1.80;;;;;;;11.87;52.56;101074.56;5074532;28;20068;-67
2022/04/09 08:55:19;;;;;;;9.77;2.05;;;;;;;11.88;53.28;101075.44;5074232;28;20065;-64
2022/04/09 08:57:45;;;;;;;8.25;2.70;;;;;;;12.32;53.54;101077.34;5073496;28;20041;-64
2022/04/09 09:00:13;;;;;;;8.00;1.95;;;;;;;12.54;50.89;101069.06;5074230;28;20210;-64
2022/04/09 09:03:00;;;;;;;10.40;2.03;;;;;;;11.90;53.11;101089.38;5073139;28;20036;-66
2022/04/09 09:05:46;;;;;;;7.40;2.10;;;;;;;11.04;53.97;101092.22;5053772;28;20029;-67
2022/04/09 09:08:12;;;;;;;10.63;1.90;;;;;;;10.31;52.51;101090.34;5058179;28;20131;-67
2022/04/09 09:10:38;;;;;;;6.55;1.90;;;;;;;9.93;53.84;101103.66;5058489;28;20036;-68
2022/04/09 09:13:08;;;;;;;8.50;1.88;;;;;;;9.82;55.71;101108.09;5060595;28;20038;-66
2022/04/09 09:15:52;;;;;;;7.70;2.03;;;;;;;9.71;55.57;101105.53;5077874;28;20071;-65
2022/04/09 09:18:28;;;;;;;5.95;1.33;;;;;;;10.05;56.05;101101.81;5077830;28;20040;-67
2022/04/09 09:21:00;;;;;;;6.38;1.50;;;;;;;10.46;54.79;101100.66;5076660;28;20037;-67
2022/04/09 09:23:29;;;;;;;5.00;1.58;;;;;;;10.81;53.52;101095.97;5076109;28;20037;-68
2022/04/09 09:25:56;;;;;;;5.60;1.40;;;;;;;11.15;52.38;101113.91;5076737;28;20047;-67
2022/04/09 09:28:29;;;;;;;7.03;1.52;;;;;;;10.96;51.72;101128.97;5077696;28;20040;-66
2022/04/09 09:30:56;;;;;;;2.70;1.00;;;;;;;10.51;52.83;101134.66;5076929;28;20053;-67
2022/04/09 09:33:21;;;;;;;6.43;1.15;;;;;;;10.06;54.19;101137.53;5077323;28;20097;-66
2022/04/09 09:35:48;;;;;;;2.03;0.93;;;;;;;9.57;56.07;101123.03;5077521;28;20032;-65
2022/04/09 09:38:24;;;;;;;4.05;1.15;;;;;;;9.54;57.76;101128.25;5077233;28;20032;-65
2022/04/09 09:40:50;;;;;;;3.45;1.00;;;;;;;9.49;56.72;101137.88;5077293;28;20093;-66
2022/04/09 09:43:20;;;;;;;3.25;1.20;;;;;;;9.43;57.07;101141.38;5077221;28;20398;-66
2022/04/09 09:45:47;;;;;;;5.85;1.33;;;;;;;9.35;57.45;101130.94;5077035;28;20049;-67
2022/04/09 09:48:25;;;;;;;6.80;1.40;;;;;;;9.27;59.41;101134.47;5077694;28;20411;-65
2022/04/09 09:50:51;;;;;;;4.90;1.50;;;;;;;9.54;59.03;101133.47;5077327;28;20028;-66
2022/04/09 09:53:29;;;;;;;5.97;1.48;;;;;;;9.94;58.90;101127.19;5076687;28;20510;-65
2022/04/09 09:55:56;;;;;;;5.25;1.30;;;;;;;10.36;54.51;101120.81;5077178;28;20032;-66
2022/04/09 09:58:23;;;;;;;5.80;1.30;;;;;;;10.31;56.01;101127.81;5077105;28;20032;-66
2022/04/09 10:00:49;;;;;;;2.50;1.30;;;;;;;10.19;51.55;101137.53;5076433;28;20123;-66
2022/04/09 10:03:16;;;;;;;4.97;1.33;;;;;;;10.08;51.63;101135.78;5076856;28;20560;-67
2022/04/09 10:05:42;;;;;;;6.28;1.40;;;;;;;10.10;52.15;101136.66;5076486;28;20477;-65
2022/04/09 10:08:08;;;;;;;6.07;1.30;;;;;;;10.44;50.35;101129.44;5077000;28;20108;-66
2022/04/09 10:10:38;;;;;;;4.60;1.30;;;;;;;10.79;50.43;101130.88;5074655;28;20111;-68
2022/04/09 10:13:04;;;;;;;3.67;1.27;;;;;;;11.20;48.25;101122.59;5075786;28;20116;-67
2022/04/09 10:15:30;;;;;;;3.35;1.17;;;;;;;11.15;45.47;101129.63;5076608;28;20029;-65
2022/04/09 10:17:59;;;;;;;4.47;1.10;;;;;;;10.98;45.17;101132.44;5067991;28;20043;-67
2022/04/09 10:20:26;;;;;;;4.32;1.25;;;;;;;10.84;47.83;101128.22;5076518;28;20479;-67
2022/04/09 10:22:58;;;;;;;4.18;1.10;;;;;;;11.05;47.10;101135.88;5076865;28;20074;-66
2022/04/09 10:25:28;;;;;;;4.78;1.10;;;;;;;11.31;46.28;101131.19;5076781;28;20102;-67
2022/04/09 10:28:00;;;;;;;4.95;1.50;;;;;;;11.27;46.04;101141.72;5076597;28;20042;-65
2022/04/09 10:30:26;;;;;;;3.83;1.30;;;;;;;11.30;45.93;101136.44;5076046;28;20048;-65
2022/04/09 10:32:56;;;;;;;5.22;1.38;;;;;;;11.21;44.68;101152.28;5076403;28;20120;-66
2022/04/09 10:35:32;;;;;;;3.22;1.17;;;;;;;10.78;44.50;101139.63;5076373;28;20097;-66
2022/04/09 10:38:06;;;;;;;4.30;1.50;;;;;;;10.72;46.20;101144.94;5076237;28;20150;-66
2022/04/09 10:40:31;;;;;;;3.58;1.17;;;;;;;10.94;45.05;101132.47;5075952;28;20032;-66
2022/04/09 10:42:57;;;;;;;6.25;1.20;;;;;;;11.14;43.98;101143.63;5075847;28;20179;-67
2022/04/09 10:45:22;;;;;;;4.57;1.17;;;;;;;10.93;43.32;101149.06;5073662;28;20428;-65
2022/04/09 10:48:33;;;;;;;2.92;1.20;;;;;;;10.84;46.63;101155.28;5069748;28;20033;-65
2022/04/09 10:51:01;;;;;;;3.47;1.20;;;;;;;10.78;44.02;101155.31;5014100;28;20044;-67
2022/04/09 10:53:29;;;;;;;6.00;1.90;;;;;;;10.61;43.38;101145.00;5050324;28;20041;-67
2022/04/09 10:56:25;;;;;;;4.75;1.70;;;;;;;10.86;43.24;101142.19;5055664;28;20025;-65
2022/04/09 10:59:16;;;;;;;6.13;1.55;;;;;;;11.12;45.09;101153.25;5067673;28;20411;-65
2022/04/09 11:01:48;;;;;;;3.67;1.30;;;;;;;11.16;42.68;101160.19;5075839;28;20063;-67
2022/04/09 11:04:32;;;;;;;2.83;1.30;;;;;;;11.45;45.45;101144.13;5075675;28;20030;-66
2022/04/09 11:07:01;;;;;;;4.97;1.00;;;;;;;11.72;42.42;101156.03;5075783;28;20107;-65
2022/04/09 11:09:55;;;;;;;2.75;1.13;;;;;;;11.73;43.27;101158.63;5072733;28;20041;-64
2022/04/09 11:12:25;;;;;;;3.85;1.00;;;;;;;11.77;41.21;101155.13;5056137;28;20040;-68
2022/04/09 11:14:57;;;;;;;2.53;1.00;;;;;;;11.90;41.08;101126.09;5055539;28;20025;-66
2022/04/09 11:17:32;;;;;;;;;;;;;;;12.08;41.74;101160.81;5057731;28;20043;-66
2022/04/09 11:20:11;;;;;;;2.10;0.80;;;;;;;12.08;40.95;101158.19;5075248;28;19916;-66
2022/04/09 11:22:41;;;;;;;2.70;0.82;;;;;;;12.29;40.83;101143.00;5074869;28;20053;-66
2022/04/09 11:25:09;;;;;;;3.10;0.90;;;;;;;12.50;40.31;101155.78;5074733;28;20040;-65